Terminal Aerodrome Forecast
Issued by NWS

Current Version | Previous Version | Text Only | Print | Product List | Glossary On
Versions: 1 2 3 4 5 6 7 8 9 10 11 12 13 14 15 16 17 18 19 20 21 22 23 24 25 26 27 28
000
FTUS43 KMKX 312329
TAFUES
TAF
KUES 312329Z 0100/0124 06007KT P6SM FEW050
     FM010700 VRB03KT P6SM BKN035
     FM011500 01008KT P6SM BKN035
     FM012200 03009KT P6SM SCT040=

USA.gov is the U.S. government's official web portal to all federal, state and local government web resources and services.